CHH7025 ZJHK-ZGSZ
Flight info
| Callsign | CHH7025 |
|---|---|
| Flight time | 0h 56m |
| Altitude | 18700 |
| Route | AGTEL9XD AGTEL W71 LH R200 BIGRO W552 LOVTA LOVTA9XA |
| Aircraft | B789/H-SDE1E2E3FGHIJ2J3J4J5M1RWXY/LB1D1 |
Departure
| Time | 2026-05-05 09:43 |
|---|---|
| Airport | Haikou Meilan International Airport (ZJHK) |
Arrival
| Time | 2026-05-05 10:39 |
|---|---|
| Airport | Shenzhen Bao'an International Airport (ZGSZ) |
| Time | Latitude | Longitude | Altitude | Speed | Heading |
|---|---|---|---|---|---|
| 2026-05-05 09:13 | 19.94866 | 110.45682 | 63 ft | 0 kts | 180° |
| 2026-05-05 09:32 | 19.94882 | 110.45682 | 54 ft | 4 kts | 183° |
| 2026-05-05 09:32 | 19.94908 | 110.45688 | 54 ft | 4 kts | 208° |
| 2026-05-05 09:32 | 19.94929 | 110.45704 | 54 ft | 4 kts | 228° |
| 2026-05-05 09:33 | 19.94940 | 110.45718 | 54 ft | 1 kts | 232° |
| 2026-05-05 09:33 | 19.94941 | 110.45720 | 54 ft | 0 kts | 232° |
| 2026-05-05 09:36 | 19.94940 | 110.45717 | 54 ft | 1 kts | 237° |
| 2026-05-05 09:36 | 19.94938 | 110.45710 | 54 ft | 1 kts | 252° |
| 2026-05-05 09:37 | 19.94938 | 110.45702 | 54 ft | 1 kts | 274° |
| 2026-05-05 09:37 | 19.94942 | 110.45692 | 56 ft | 3 kts | 294° |
| 2026-05-05 09:37 | 19.94958 | 110.45652 | 55 ft | 7 kts | 291° |
| 2026-05-05 09:37 | 19.94983 | 110.45612 | 56 ft | 7 kts | 310° |
| 2026-05-05 09:38 | 19.95025 | 110.45565 | 53 ft | 10 kts | 314° |
| 2026-05-05 09:38 | 19.95078 | 110.45536 | 55 ft | 8 kts | 355° |
| 2026-05-05 09:38 | 19.95141 | 110.45533 | 53 ft | 10 kts | 359° |
| 2026-05-05 09:38 | 19.95194 | 110.45519 | 57 ft | 6 kts | 308° |
| 2026-05-05 09:39 | 19.95203 | 110.45478 | 59 ft | 7 kts | 274° |
| 2026-05-05 09:39 | 19.95203 | 110.45417 | 60 ft | 10 kts | 269° |
| 2026-05-05 09:39 | 19.95203 | 110.45337 | 60 ft | 12 kts | 270° |
| 2026-05-05 09:39 | 19.95203 | 110.45252 | 60 ft | 14 kts | 270° |
| 2026-05-05 09:40 | 19.95198 | 110.45138 | 55 ft | 16 kts | 265° |
| 2026-05-05 09:40 | 19.95202 | 110.45013 | 58 ft | 18 kts | 272° |
| 2026-05-05 09:40 | 19.95202 | 110.44894 | 57 ft | 11 kts | 270° |
| 2026-05-05 09:40 | 19.95207 | 110.44836 | 57 ft | 5 kts | 296° |
| 2026-05-05 09:41 | 19.95217 | 110.44828 | 49 ft | 2 kts | 333° |
| 2026-05-05 09:41 | 19.95242 | 110.44823 | 50 ft | 6 kts | 354° |
| 2026-05-05 09:41 | 19.95298 | 110.44823 | 54 ft | 10 kts | 5° |
| 2026-05-05 09:41 | 19.95355 | 110.44866 | 47 ft | 11 kts | 57° |
| 2026-05-05 09:42 | 19.95372 | 110.44938 | 53 ft | 10 kts | 87° |
| 2026-05-05 09:42 | 19.95372 | 110.44963 | 55 ft | 0 kts | 89° |
| 2026-05-05 09:42 | 19.95372 | 110.45019 | 57 ft | 27 kts | 90° |
| 2026-05-05 09:42 | 19.95375 | 110.45445 | 62 ft | 90 kts | 89° |
| 2026-05-05 09:43 | 19.95379 | 110.46327 | 62 ft | 147 kts | 89° |
| 2026-05-05 09:43 | 19.95380 | 110.47562 | 335 ft | 172 kts | 94° |
| 2026-05-05 09:43 | 19.95477 | 110.48788 | 1252 ft | 169 kts | 71° |
| 2026-05-05 09:43 | 19.96315 | 110.49668 | 1950 ft | 184 kts | 19° |
| 2026-05-05 09:44 | 19.97607 | 110.49769 | 2829 ft | 186 kts | 354° |
| 2026-05-05 09:44 | 19.98846 | 110.49283 | 3575 ft | 201 kts | 337° |
| 2026-05-05 09:44 | 20.00207 | 110.48631 | 4023 ft | 230 kts | 337° |
| 2026-05-05 09:44 | 20.01764 | 110.47940 | 4659 ft | 249 kts | 338° |
| 2026-05-05 09:45 | 20.03347 | 110.47271 | 5758 ft | 248 kts | 337° |
| 2026-05-05 09:45 | 20.04967 | 110.46579 | 6733 ft | 252 kts | 335° |
| 2026-05-05 09:45 | 20.06599 | 110.45875 | 7699 ft | 255 kts | 335° |
| 2026-05-05 09:45 | 20.08258 | 110.45160 | 8617 ft | 259 kts | 335° |
| 2026-05-05 09:46 | 20.09939 | 110.44437 | 9559 ft | 262 kts | 335° |
| 2026-05-05 09:46 | 20.11641 | 110.43705 | 10446 ft | 266 kts | 335° |
| 2026-05-05 09:46 | 20.13370 | 110.42961 | 11275 ft | 270 kts | 335° |
| 2026-05-05 09:46 | 20.15121 | 110.42207 | 12124 ft | 273 kts | 335° |
| 2026-05-05 09:47 | 20.16872 | 110.41453 | 12961 ft | 277 kts | 335° |
| 2026-05-05 09:47 | 20.18672 | 110.40677 | 13795 ft | 281 kts | 335° |
| 2026-05-05 09:47 | 20.20495 | 110.39892 | 14551 ft | 284 kts | 334° |
| 2026-05-05 09:47 | 20.22336 | 110.39099 | 15299 ft | 287 kts | 334° |
| 2026-05-05 09:48 | 20.24195 | 110.38298 | 16067 ft | 290 kts | 334° |
| 2026-05-05 09:48 | 20.26099 | 110.37542 | 16742 ft | 299 kts | 339° |
| 2026-05-05 09:48 | 20.28172 | 110.36845 | 16808 ft | 326 kts | 338° |
| 2026-05-05 09:48 | 20.30414 | 110.36055 | 16839 ft | 353 kts | 338° |
| 2026-05-05 09:49 | 20.32830 | 110.35222 | 16896 ft | 376 kts | 339° |
| 2026-05-05 09:49 | 20.35323 | 110.34378 | 17420 ft | 382 kts | 339° |
| 2026-05-05 09:49 | 20.37861 | 110.33514 | 18042 ft | 385 kts | 339° |
| 2026-05-05 09:49 | 20.40426 | 110.32627 | 18532 ft | 391 kts | 338° |
| 2026-05-05 09:50 | 20.43042 | 110.31722 | 18617 ft | 397 kts | 339° |
| 2026-05-05 09:50 | 20.45654 | 110.30829 | 18618 ft | 392 kts | 339° |
| 2026-05-05 09:50 | 20.48256 | 110.29943 | 18623 ft | 393 kts | 340° |
| 2026-05-05 09:50 | 20.50966 | 110.29470 | 18625 ft | 399 kts | 354° |
| 2026-05-05 09:51 | 20.53753 | 110.29576 | 18624 ft | 401 kts | 360° |
| 2026-05-05 09:51 | 20.56538 | 110.29753 | 18633 ft | 402 kts | 360° |
| 2026-05-05 09:51 | 20.59291 | 110.29941 | 18622 ft | 402 kts | 360° |
| 2026-05-05 09:51 | 20.62091 | 110.30128 | 18621 ft | 403 kts | 359° |
| 2026-05-05 09:52 | 20.64880 | 110.30307 | 18624 ft | 402 kts | 359° |
| 2026-05-05 09:52 | 20.67670 | 110.30488 | 18622 ft | 401 kts | 359° |
| 2026-05-05 09:52 | 20.70454 | 110.30671 | 18620 ft | 401 kts | 359° |
| 2026-05-05 09:52 | 20.73238 | 110.30855 | 18622 ft | 401 kts | 359° |
| 2026-05-05 09:53 | 20.76023 | 110.31037 | 18627 ft | 401 kts | 359° |
| 2026-05-05 09:53 | 20.78807 | 110.31219 | 18622 ft | 401 kts | 359° |
| 2026-05-05 09:53 | 20.81555 | 110.31400 | 18616 ft | 401 kts | 359° |
| 2026-05-05 09:53 | 20.84342 | 110.31583 | 18619 ft | 401 kts | 359° |
| 2026-05-05 09:54 | 20.87131 | 110.31766 | 18620 ft | 401 kts | 359° |
| 2026-05-05 09:54 | 20.89916 | 110.31949 | 18620 ft | 401 kts | 359° |
| 2026-05-05 09:54 | 20.92701 | 110.32132 | 18618 ft | 401 kts | 357° |
| 2026-05-05 09:54 | 20.95489 | 110.32323 | 18623 ft | 402 kts | 360° |
| 2026-05-05 09:55 | 20.98281 | 110.32502 | 18623 ft | 403 kts | 359° |
| 2026-05-05 09:55 | 21.01078 | 110.32673 | 18623 ft | 402 kts | 359° |
| 2026-05-05 09:55 | 21.03869 | 110.32818 | 18624 ft | 401 kts | 359° |
| 2026-05-05 09:55 | 21.06615 | 110.33018 | 18620 ft | 403 kts | 6° |
| 2026-05-05 09:56 | 21.09330 | 110.33851 | 18630 ft | 410 kts | 20° |
| 2026-05-05 09:56 | 21.11815 | 110.35373 | 18604 ft | 411 kts | 34° |
| 2026-05-05 09:56 | 21.13848 | 110.37471 | 18614 ft | 407 kts | 49° |
| 2026-05-05 09:56 | 21.15384 | 110.40080 | 18628 ft | 423 kts | 64° |
| 2026-05-05 09:57 | 21.16385 | 110.43054 | 18621 ft | 425 kts | 71° |
| 2026-05-05 09:57 | 21.17295 | 110.46078 | 18622 ft | 427 kts | 71° |
| 2026-05-05 09:57 | 21.18176 | 110.49123 | 18620 ft | 429 kts | 71° |
| 2026-05-05 09:57 | 21.19057 | 110.52141 | 18621 ft | 429 kts | 71° |
| 2026-05-05 09:58 | 21.19960 | 110.55173 | 18626 ft | 428 kts | 71° |
| 2026-05-05 09:58 | 21.20864 | 110.58217 | 18619 ft | 429 kts | 71° |
| 2026-05-05 09:58 | 21.21759 | 110.61265 | 18628 ft | 429 kts | 71° |
| 2026-05-05 09:58 | 21.22653 | 110.64314 | 18631 ft | 429 kts | 71° |
| 2026-05-05 09:59 | 21.23551 | 110.67363 | 18628 ft | 429 kts | 71° |
| 2026-05-05 09:59 | 21.24450 | 110.70413 | 18626 ft | 429 kts | 71° |
| 2026-05-05 09:59 | 21.25348 | 110.73467 | 18630 ft | 429 kts | 71° |
| 2026-05-05 09:59 | 21.26232 | 110.76481 | 18626 ft | 430 kts | 71° |
| 2026-05-05 10:00 | 21.27128 | 110.79536 | 18626 ft | 429 kts | 71° |
| 2026-05-05 10:00 | 21.28023 | 110.82587 | 18633 ft | 430 kts | 71° |
| 2026-05-05 10:00 | 21.28919 | 110.85643 | 18630 ft | 430 kts | 71° |
| 2026-05-05 10:00 | 21.29813 | 110.88699 | 18629 ft | 429 kts | 71° |
| 2026-05-05 10:01 | 21.30706 | 110.91752 | 18624 ft | 429 kts | 71° |
| 2026-05-05 10:01 | 21.31597 | 110.94801 | 18624 ft | 428 kts | 71° |
| 2026-05-05 10:01 | 21.32488 | 110.97849 | 18625 ft | 428 kts | 71° |
| 2026-05-05 10:01 | 21.33376 | 111.00892 | 18626 ft | 428 kts | 71° |
| 2026-05-05 10:02 | 21.34255 | 111.03903 | 18625 ft | 429 kts | 71° |
| 2026-05-05 10:02 | 21.35144 | 111.06956 | 18626 ft | 429 kts | 71° |
| 2026-05-05 10:02 | 21.36032 | 111.10004 | 18625 ft | 428 kts | 71° |
| 2026-05-05 10:02 | 21.36920 | 111.13054 | 18627 ft | 428 kts | 71° |
| 2026-05-05 10:03 | 21.37808 | 111.16106 | 18626 ft | 428 kts | 71° |
| 2026-05-05 10:03 | 21.38694 | 111.19157 | 18632 ft | 428 kts | 71° |
| 2026-05-05 10:03 | 21.39580 | 111.22210 | 18636 ft | 430 kts | 71° |
| 2026-05-05 10:03 | 21.40469 | 111.25273 | 18634 ft | 430 kts | 71° |
| 2026-05-05 10:04 | 21.41357 | 111.28332 | 18636 ft | 429 kts | 71° |
| 2026-05-05 10:04 | 21.42242 | 111.31390 | 18635 ft | 429 kts | 71° |
| 2026-05-05 10:04 | 21.43127 | 111.34445 | 18636 ft | 429 kts | 71° |
| 2026-05-05 10:04 | 21.44000 | 111.37461 | 18634 ft | 428 kts | 71° |
| 2026-05-05 10:05 | 21.44881 | 111.40510 | 18635 ft | 428 kts | 71° |
| 2026-05-05 10:05 | 21.45763 | 111.43563 | 18637 ft | 428 kts | 71° |
| 2026-05-05 10:05 | 21.46645 | 111.46618 | 18637 ft | 429 kts | 71° |
| 2026-05-05 10:05 | 21.47528 | 111.49681 | 18638 ft | 429 kts | 71° |
| 2026-05-05 10:06 | 21.48411 | 111.52744 | 18642 ft | 430 kts | 71° |
| 2026-05-05 10:06 | 21.49295 | 111.55812 | 18644 ft | 430 kts | 71° |
| 2026-05-05 10:06 | 21.50178 | 111.58880 | 18645 ft | 430 kts | 71° |
| 2026-05-05 10:06 | 21.51049 | 111.61911 | 18641 ft | 431 kts | 72° |
| 2026-05-05 10:07 | 21.51933 | 111.64985 | 18640 ft | 431 kts | 72° |
| 2026-05-05 10:07 | 21.52815 | 111.68055 | 18640 ft | 430 kts | 72° |
| 2026-05-05 10:07 | 21.53694 | 111.71122 | 18640 ft | 429 kts | 72° |
| 2026-05-05 10:07 | 21.54572 | 111.74184 | 18640 ft | 429 kts | 72° |
| 2026-05-05 10:08 | 21.55451 | 111.77250 | 18643 ft | 430 kts | 72° |
| 2026-05-05 10:08 | 21.56330 | 111.80320 | 18642 ft | 430 kts | 72° |
| 2026-05-05 10:08 | 21.57179 | 111.83403 | 18646 ft | 431 kts | 76° |
| 2026-05-05 10:08 | 21.57885 | 111.86489 | 18644 ft | 432 kts | 74° |
| 2026-05-05 10:09 | 21.58672 | 111.89597 | 18642 ft | 431 kts | 73° |
| 2026-05-05 10:09 | 21.59446 | 111.92706 | 18653 ft | 431 kts | 75° |
| 2026-05-05 10:09 | 21.60185 | 111.95827 | 18646 ft | 432 kts | 75° |
| 2026-05-05 10:09 | 21.60924 | 111.98954 | 18645 ft | 431 kts | 75° |
| 2026-05-05 10:10 | 21.61680 | 112.02074 | 18648 ft | 431 kts | 74° |
| 2026-05-05 10:10 | 21.62437 | 112.05190 | 18649 ft | 431 kts | 75° |
| 2026-05-05 10:10 | 21.63186 | 112.08309 | 18648 ft | 431 kts | 75° |
| 2026-05-05 10:10 | 21.63930 | 112.11425 | 18648 ft | 431 kts | 75° |
| 2026-05-05 10:11 | 21.64678 | 112.14542 | 18651 ft | 431 kts | 75° |
| 2026-05-05 10:11 | 21.65419 | 112.17624 | 18651 ft | 432 kts | 75° |
| 2026-05-05 10:11 | 21.66167 | 112.20749 | 18654 ft | 432 kts | 75° |
| 2026-05-05 10:11 | 21.66916 | 112.23882 | 18655 ft | 433 kts | 75° |
| 2026-05-05 10:12 | 21.67665 | 112.27017 | 18659 ft | 433 kts | 75° |
| 2026-05-05 10:12 | 21.68413 | 112.30147 | 18658 ft | 432 kts | 75° |
| 2026-05-05 10:12 | 21.69158 | 112.33267 | 18659 ft | 431 kts | 75° |
| 2026-05-05 10:12 | 21.69902 | 112.36390 | 18659 ft | 430 kts | 75° |
| 2026-05-05 10:13 | 21.70645 | 112.39506 | 18656 ft | 430 kts | 75° |
| 2026-05-05 10:13 | 21.71386 | 112.42622 | 18655 ft | 431 kts | 75° |
| 2026-05-05 10:13 | 21.72119 | 112.45704 | 18656 ft | 431 kts | 75° |
| 2026-05-05 10:13 | 21.72862 | 112.48829 | 18656 ft | 431 kts | 75° |
| 2026-05-05 10:14 | 21.73603 | 112.51955 | 18656 ft | 432 kts | 75° |
| 2026-05-05 10:14 | 21.74345 | 112.55083 | 18657 ft | 432 kts | 75° |
| 2026-05-05 10:14 | 21.75088 | 112.58214 | 18657 ft | 432 kts | 75° |
| 2026-05-05 10:14 | 21.75840 | 112.61340 | 18660 ft | 432 kts | 74° |
| 2026-05-05 10:15 | 21.76601 | 112.64466 | 18660 ft | 432 kts | 74° |
| 2026-05-05 10:15 | 21.77356 | 112.67598 | 18661 ft | 432 kts | 75° |
| 2026-05-05 10:15 | 21.78107 | 112.70732 | 18659 ft | 433 kts | 75° |
| 2026-05-05 10:15 | 21.78848 | 112.73824 | 18667 ft | 433 kts | 75° |
| 2026-05-05 10:16 | 21.79604 | 112.76968 | 18669 ft | 434 kts | 75° |
| 2026-05-05 10:16 | 21.80358 | 112.80106 | 18666 ft | 433 kts | 75° |
| 2026-05-05 10:16 | 21.81109 | 112.83246 | 18667 ft | 434 kts | 75° |
| 2026-05-05 10:16 | 21.81862 | 112.86392 | 18666 ft | 434 kts | 75° |
| 2026-05-05 10:17 | 21.82614 | 112.89537 | 18669 ft | 434 kts | 75° |
| 2026-05-05 10:17 | 21.83366 | 112.92683 | 18670 ft | 434 kts | 75° |
| 2026-05-05 10:17 | 21.84117 | 112.95829 | 18670 ft | 434 kts | 75° |
| 2026-05-05 10:17 | 21.84859 | 112.98937 | 18671 ft | 434 kts | 75° |
| 2026-05-05 10:18 | 21.85607 | 113.02079 | 18675 ft | 434 kts | 75° |
| 2026-05-05 10:18 | 21.86347 | 113.05231 | 18661 ft | 432 kts | 75° |
| 2026-05-05 10:18 | 21.87082 | 113.08371 | 18661 ft | 433 kts | 75° |
| 2026-05-05 10:18 | 21.87823 | 113.11517 | 18658 ft | 433 kts | 75° |
| 2026-05-05 10:19 | 21.88563 | 113.14660 | 18654 ft | 433 kts | 75° |
| 2026-05-05 10:19 | 21.89301 | 113.17803 | 18653 ft | 433 kts | 75° |
| 2026-05-05 10:19 | 21.90029 | 113.20915 | 18648 ft | 422 kts | 75° |
| 2026-05-05 10:19 | 21.90735 | 113.23929 | 18638 ft | 409 kts | 75° |
| 2026-05-05 10:20 | 21.91597 | 113.26763 | 18377 ft | 402 kts | 60° |
| 2026-05-05 10:20 | 21.93135 | 113.29237 | 18004 ft | 395 kts | 44° |
| 2026-05-05 10:20 | 21.95202 | 113.31123 | 17658 ft | 386 kts | 27° |
| 2026-05-05 10:20 | 21.97529 | 113.32519 | 17276 ft | 382 kts | 24° |
| 2026-05-05 10:21 | 21.99863 | 113.33859 | 16969 ft | 379 kts | 23° |
| 2026-05-05 10:21 | 22.02157 | 113.35155 | 16653 ft | 377 kts | 23° |
| 2026-05-05 10:21 | 22.04468 | 113.36478 | 16358 ft | 375 kts | 24° |
| 2026-05-05 10:21 | 22.06763 | 113.37805 | 16049 ft | 373 kts | 24° |
| 2026-05-05 10:22 | 22.09046 | 113.39120 | 15750 ft | 371 kts | 24° |
| 2026-05-05 10:22 | 22.11287 | 113.40405 | 15467 ft | 369 kts | 24° |
| 2026-05-05 10:22 | 22.13547 | 113.41703 | 15187 ft | 367 kts | 24° |
| 2026-05-05 10:22 | 22.15793 | 113.42996 | 14898 ft | 365 kts | 24° |
| 2026-05-05 10:23 | 22.18033 | 113.44285 | 14564 ft | 365 kts | 24° |
| 2026-05-05 10:23 | 22.20286 | 113.45506 | 14301 ft | 359 kts | 16° |
| 2026-05-05 10:23 | 22.22690 | 113.46004 | 14004 ft | 349 kts | 356° |
| 2026-05-05 10:23 | 22.25050 | 113.45659 | 13715 ft | 339 kts | 339° |
| 2026-05-05 10:24 | 22.27299 | 113.44906 | 13359 ft | 338 kts | 338° |
| 2026-05-05 10:24 | 22.29526 | 113.44124 | 13088 ft | 336 kts | 337° |
| 2026-05-05 10:24 | 22.31738 | 113.43341 | 12803 ft | 335 kts | 338° |
| 2026-05-05 10:24 | 22.33923 | 113.42582 | 12514 ft | 334 kts | 338° |
| 2026-05-05 10:25 | 22.36127 | 113.41822 | 12256 ft | 332 kts | 338° |
| 2026-05-05 10:25 | 22.38308 | 113.41067 | 12145 ft | 325 kts | 338° |
| 2026-05-05 10:25 | 22.40431 | 113.40333 | 12136 ft | 316 kts | 339° |
| 2026-05-05 10:25 | 22.42588 | 113.40000 | 11896 ft | 315 kts | 359° |
| 2026-05-05 10:26 | 22.44720 | 113.40504 | 11502 ft | 316 kts | 20° |
| 2026-05-05 10:26 | 22.46565 | 113.41784 | 11106 ft | 318 kts | 42° |
| 2026-05-05 10:26 | 22.47856 | 113.43650 | 10836 ft | 310 kts | 63° |
| 2026-05-05 10:26 | 22.48750 | 113.45704 | 10698 ft | 295 kts | 64° |
| 2026-05-05 10:27 | 22.49600 | 113.47715 | 10592 ft | 298 kts | 65° |
| 2026-05-05 10:27 | 22.50467 | 113.49786 | 10477 ft | 305 kts | 65° |
| 2026-05-05 10:27 | 22.51350 | 113.51875 | 10363 ft | 306 kts | 65° |
| 2026-05-05 10:27 | 22.52270 | 113.53913 | 10246 ft | 297 kts | 57° |
| 2026-05-05 10:28 | 22.53720 | 113.55493 | 10060 ft | 301 kts | 29° |
| 2026-05-05 10:28 | 22.55624 | 113.56242 | 9830 ft | 285 kts | 3° |
| 2026-05-05 10:28 | 22.57550 | 113.56375 | 9597 ft | 272 kts | 359° |
| 2026-05-05 10:28 | 22.59387 | 113.56439 | 9350 ft | 263 kts | 358° |
| 2026-05-05 10:29 | 22.61189 | 113.56496 | 9127 ft | 255 kts | 358° |
| 2026-05-05 10:29 | 22.62933 | 113.56568 | 8919 ft | 247 kts | 359° |
| 2026-05-05 10:29 | 22.64633 | 113.56642 | 8719 ft | 244 kts | 359° |
| 2026-05-05 10:29 | 22.66336 | 113.56711 | 8540 ft | 246 kts | 359° |
| 2026-05-05 10:30 | 22.68050 | 113.56781 | 8337 ft | 246 kts | 359° |
| 2026-05-05 10:30 | 22.69761 | 113.56852 | 8157 ft | 245 kts | 359° |
| 2026-05-05 10:30 | 22.71441 | 113.56923 | 7961 ft | 240 kts | 359° |
| 2026-05-05 10:30 | 22.73104 | 113.56990 | 7787 ft | 243 kts | 359° |
| 2026-05-05 10:31 | 22.74777 | 113.57054 | 7795 ft | 238 kts | 358° |
| 2026-05-05 10:31 | 22.76445 | 113.57098 | 7565 ft | 240 kts | 358° |
| 2026-05-05 10:31 | 22.78099 | 113.57144 | 7269 ft | 236 kts | 359° |
| 2026-05-05 10:31 | 22.79733 | 113.57194 | 6963 ft | 232 kts | 359° |
| 2026-05-05 10:32 | 22.81332 | 113.57248 | 6653 ft | 228 kts | 360° |
| 2026-05-05 10:32 | 22.82845 | 113.57666 | 6313 ft | 229 kts | 31° |
| 2026-05-05 10:32 | 22.83916 | 113.58891 | 6021 ft | 224 kts | 62° |
| 2026-05-05 10:32 | 22.84614 | 113.60373 | 5774 ft | 218 kts | 64° |
| 2026-05-05 10:33 | 22.85297 | 113.61809 | 5509 ft | 216 kts | 64° |
| 2026-05-05 10:33 | 22.85986 | 113.63250 | 5217 ft | 214 kts | 63° |
| 2026-05-05 10:33 | 22.86603 | 113.64707 | 4915 ft | 211 kts | 76° |
| 2026-05-05 10:33 | 22.86473 | 113.66239 | 4605 ft | 204 kts | 114° |
| 2026-05-05 10:34 | 22.85619 | 113.67395 | 4353 ft | 195 kts | 147° |
| 2026-05-05 10:34 | 22.84443 | 113.68078 | 4129 ft | 190 kts | 155° |
| 2026-05-05 10:34 | 22.83264 | 113.68709 | 3879 ft | 187 kts | 154° |
| 2026-05-05 10:34 | 22.82105 | 113.69338 | 3629 ft | 186 kts | 154° |
| 2026-05-05 10:35 | 22.80949 | 113.69960 | 3390 ft | 185 kts | 154° |
| 2026-05-05 10:35 | 22.79805 | 113.70549 | 3140 ft | 184 kts | 153° |
| 2026-05-05 10:35 | 22.78664 | 113.71170 | 2887 ft | 183 kts | 152° |
| 2026-05-05 10:35 | 22.77555 | 113.71810 | 2653 ft | 178 kts | 150° |
| 2026-05-05 10:36 | 22.76505 | 113.72411 | 2421 ft | 163 kts | 151° |
| 2026-05-05 10:36 | 22.75524 | 113.72951 | 2201 ft | 154 kts | 152° |
| 2026-05-05 10:36 | 22.74584 | 113.73457 | 2016 ft | 149 kts | 152° |
| 2026-05-05 10:36 | 22.73653 | 113.73958 | 1823 ft | 150 kts | 151° |
| 2026-05-05 10:37 | 22.72745 | 113.74448 | 1633 ft | 150 kts | 151° |
| 2026-05-05 10:37 | 22.71795 | 113.74969 | 1419 ft | 149 kts | 150° |
| 2026-05-05 10:37 | 22.70876 | 113.75482 | 1223 ft | 148 kts | 150° |
| 2026-05-05 10:37 | 22.69967 | 113.75985 | 1030 ft | 148 kts | 150° |
| 2026-05-05 10:38 | 22.69052 | 113.76491 | 823 ft | 148 kts | 151° |
| 2026-05-05 10:38 | 22.68126 | 113.77002 | 642 ft | 151 kts | 151° |
| 2026-05-05 10:38 | 22.67192 | 113.77519 | 413 ft | 147 kts | 149° |
| 2026-05-05 10:38 | 22.66277 | 113.78029 | 251 ft | 151 kts | 150° |
| 2026-05-05 10:39 | 22.65342 | 113.78545 | 51 ft | 149 kts | 152° |
| 2026-05-05 10:39 | 22.64547 | 113.78984 | 26 ft | 100 kts | 153° |
| 2026-05-05 10:39 | 22.64103 | 113.79226 | 22 ft | 47 kts | 153° |
| 2026-05-05 10:39 | 22.63912 | 113.79356 | 22 ft | 23 kts | 132° |
| 2026-05-05 10:40 | 22.63833 | 113.79469 | 23 ft | 17 kts | 123° |
| 2026-05-05 10:40 | 22.63801 | 113.79539 | 21 ft | 8 kts | 92° |
| 2026-05-05 10:40 | 22.63815 | 113.79587 | 22 ft | 6 kts | 64° |
| 2026-05-05 10:40 | 22.63832 | 113.79623 | 21 ft | 5 kts | 64° |
| 2026-05-05 10:41 | 22.63845 | 113.79652 | 21 ft | 4 kts | 62° |
| 2026-05-05 10:41 | 22.63861 | 113.79681 | 21 ft | 5 kts | 59° |
| 2026-05-05 10:41 | 22.63880 | 113.79717 | 21 ft | 7 kts | 63° |
| 2026-05-05 10:41 | 22.63880 | 113.79759 | 21 ft | 4 kts | 119° |
| 2026-05-05 10:42 | 22.63847 | 113.79791 | 21 ft | 3 kts | 147° |
| 2026-05-05 10:42 | 22.63829 | 113.79803 | 21 ft | 2 kts | 146° |
| 2026-05-05 10:42 | 22.63827 | 113.79807 | 21 ft | 1 kts | 125° |
| 2026-05-05 10:43 | 22.63823 | 113.79825 | 21 ft | 3 kts | 89° |
| 2026-05-05 10:43 | 22.63843 | 113.79887 | 21 ft | 14 kts | 66° |
| 2026-05-05 10:43 | 22.63883 | 113.79977 | 21 ft | 13 kts | 63° |
| 2026-05-05 10:43 | 22.63921 | 113.80058 | 21 ft | 12 kts | 64° |
| 2026-05-05 10:44 | 22.63956 | 113.80134 | 21 ft | 11 kts | 64° |
| 2026-05-05 10:44 | 22.63988 | 113.80202 | 21 ft | 10 kts | 63° |
| 2026-05-05 10:44 | 22.64020 | 113.80269 | 21 ft | 10 kts | 63° |
| 2026-05-05 10:44 | 22.64050 | 113.80333 | 21 ft | 9 kts | 63° |
| 2026-05-05 10:45 | 22.64082 | 113.80403 | 21 ft | 12 kts | 64° |
| 2026-05-05 10:45 | 22.64116 | 113.80477 | 21 ft | 10 kts | 62° |
| 2026-05-05 10:45 | 22.64137 | 113.80507 | 22 ft | 2 kts | 30° |
| 2026-05-05 10:45 | 22.64156 | 113.80510 | 22 ft | 4 kts | 356° |
| 2026-05-05 10:46 | 22.64192 | 113.80496 | 21 ft | 6 kts | 335° |
| 2026-05-05 10:46 | 22.64235 | 113.80474 | 21 ft | 8 kts | 333° |
| 2026-05-05 10:46 | 22.64285 | 113.80446 | 21 ft | 9 kts | 333° |
| 2026-05-05 10:46 | 22.64341 | 113.80415 | 21 ft | 8 kts | 324° |
| 2026-05-05 10:47 | 22.64350 | 113.80398 | 22 ft | 1 kts | 279° |
| 2026-05-05 10:47 | 22.64346 | 113.80387 | 21 ft | 4 kts | 247° |
| 2026-05-05 10:47 | 22.64331 | 113.80353 | 21 ft | 6 kts | 244° |
| 2026-05-05 10:47 | 22.64324 | 113.80336 | 21 ft | 2 kts | 243° |
| 2026-05-05 10:48 | 22.64318 | 113.80324 | 21 ft | 2 kts | 243° |
| 2026-05-05 10:48 | 22.64316 | 113.80319 | 21 ft | 1 kts | 243° |
| 2026-05-05 10:48 | 22.64315 | 113.80319 | 21 ft | 0 kts | 243° |